NCAR-RAP Real-Time Weather Data

Output produced by METARs form (12 August 2020  18:34 UTC)
found at http://weather.rap.ucar.edu/surface/
 
KIND 121754Z 12007KT 10SM R05L/0200VP6000FT SCT024 SCT029 SCT041 BKN200 BKN240 27/22 A3007 RMK AO2 SLP176 T02720217 10272 20206 58004
KIND 121654Z 12007KT 10SM SCT022 SCT034 BKN200 BKN240 27/21 A3008 RMK AO2 SLP178 T02670211
KIND 121554Z 11005KT 10SM FEW033 SCT200 BKN240 26/21 A3008 RMK AO2 SLP179 T02560206
KIND 121454Z 10005KT 10SM FEW030 SCT210 BKN250 24/19 A3008 RMK AO2 SLP181 T02440194 50001
KIND 121354Z 05004KT 10SM FEW030 SCT200 BKN240 23/19 A3009 RMK AO2 SLP183 T02280189
KIND 121254Z 04006KT 10SM FEW030 SCT200 BKN240 22/18 A3009 RMK AO2 SLP183 T02170183
KIND 121154Z 03006KT 10SM SCT029 BKN250 21/18 A3008 RMK AO2 SLP180 T02060178 10217 20194 53010
KIND 121151Z 03005KT 10SM SCT029 BKN250 21/18 A3008 RMK AO2
KIND 121131Z 03005KT 10SM BKN029 BKN250 20/17 A3008 RMK AO2 T02000172
KIND 121054Z 03007KT 10SM FEW200 SCT250 19/17 A3007 RMK AO2 SLP175 T01940172
KIND 120954Z 03006KT 10SM CLR 20/18 A3005 RMK AO2 SLP168 T02000178
KIND 120854Z 02003KT 10SM BKN250 21/18 A3005 RMK AO2 SLP168 T02060178 53005
KIND 120754Z 03004KT 10SM BKN250 21/18 A3004 RMK AO2 SLP166 T02060183
KIND 120654Z 02004KT 10SM SCT250 21/19 A3003 RMK AO2 SLP162 T02110189
KIND 120554Z 02003KT 10SM SCT250 22/19 A3003 RMK AO2 SLP163 T02170194 10256 20217 50005
KIND 120454Z 02003KT 10SM BKN250 22/19 A3004 RMK AO2 SLP166 T02220194 402940189
KIND 120354Z 35005KT 10SM FEW030 SCT250 23/19 A3003 RMK AO2 SLP164 T02280194
KIND 120254Z 01003KT 10SM FEW030 BKN250 23/19 A3002 RMK AO2 SLP158 T02330194 51009
KIND 120154Z 01005KT 10SM SCT030 SCT150 BKN250 24/19 A3001 RMK AO2 SLP155 T02390194
KIND 120054Z 01006KT 10SM BKN030 BKN150 BKN250 24/20 A3000 RMK AO2 SLP153 T02440200
KIND 112354Z 33008KT 10SM FEW033 FEW150 BKN250 26/20 A2999 RMK AO2 SLP149 T02560200 10294 20256 52002
KIND 112254Z 33009KT 10SM FEW033 SCT150 BKN250 27/20 A2999 RMK AO2 SLP147 T02720200
KIND 112154Z 34007KT 10SM SCT036 SCT150 BKN250 28/21 A2998 RMK AO2 SLP146 T02830206
KIND 112054Z 30007KT 10SM SCT036 SCT100 BKN250 29/21 A2998 RMK AO2 SLP145 T02890206 56009
KIND 111954Z 26004KT 10SM SCT032 SCT100 BKN250 28/20 A2998 RMK AO2 SLP146 T02830200
KIND 111854Z VRB05KT 10SM SCT027 SCT100 BKN250 28/21 A3000 RMK AO2 SLP151 T02780211
KIND 111754Z VRB05KT 10SM SCT025 BKN250 27/20 A3001 RMK AO2 SLP156 T02670200 10267 20200 58003
KIND 111654Z 25006KT 10SM FEW020 SCT250 25/20 A3002 RMK AO2 SLP158 T02500200
KIND 111639Z VRB03KT 10SM SCT020 SCT250 24/19 A3002 RMK AO2 T02440194
KIND 111554Z 29006KT 10SM BKN016 24/19 A3002 RMK AO2 SLP162 T02390189
KIND 111519Z 28005KT 10SM BKN016 23/19 A3002 RMK AO2 T02280189
KIND 111454Z 28008KT 10SM BKN014 23/19 A3002 RMK AO2 SLP160 T02280189 51009
KIND 111354Z 27008KT 10SM BKN012 22/19 A3001 RMK AO2 SLP157 T02220194
KIND 111340Z 28006KT 10SM BKN012 BKN250 22/19 A3001 RMK AO2 T02170189
KIND 111254Z 26005KT 10SM BKN006 BKN250 21/19 A3000 RMK AO2 SLP155 T02110194
KIND 111237Z 24005KT 10SM BKN006 BKN250 21/19 A3000 RMK AO2 T02060194 $
KIND 111154Z 22004KT 10SM FEW008 FEW020 BKN250 20/19 A2999 RMK AO2 SLP152 70082 T02000194 10206 20189 51013 $
KIND 111054Z 22005KT 10SM FEW010 BKN180 BKN250 19/18 A2999 RMK AO2 SLP147 T01940183 $
KIND 110954Z 26006KT 10SM FEW050 BKN180 20/19 A2997 RMK AO2 SLP142 T02000189 $
KIND 110854Z 23007KT 10SM BKN180 20/19 A2995 RMK AO2 SLP136 T02000194 53002 $
KIND 110754Z 21005KT 10SM BKN170 20/19 A2994 RMK AO2 SLP130 T02000194 $
KIND 110654Z 29003KT 10SM SCT160 BKN200 20/19 A2993 RMK AO2 SLP127 T02000194 $
KIND 110554Z 30005KT 10SM FEW110 BKN240 21/19 A2995 RMK AO2 SLP133 60047 T02060194 10211 20200 55004 $
KIND 110454Z 18005KT 10SM FEW080 SCT110 BKN150 BKN190 21/19 A2993 RMK AO2 RAE0355 SLP130 P0000 T02110194 403060200 $
KIND 110354Z 17014G22KT 10SM -RA SCT070 BKN120 OVC150 21/19 A2993 RMK AO2 PK WND 17029/0329 TSE00 PRESRR SLP128 P0001 T02060194 $
KIND 110306Z 14009KT 10SM -RA SCT070 BKN110 OVC140 20/19 A2997 RMK AO2 TSE00 P0000 T02000194 $
KIND 110254Z 15012KT 10SM -TSRA SCT075CB OVC140 21/19 A2996 RMK AO2 SLP140 OCNL LTGICCG E-SE TS E-SE MOV SE P0009 60046 T02060194 58015 $
KIND 110154Z 13007KT 9SM TSRA SCT050CB OVC100 21/19 A3000 RMK AO2 LTG DSNT E-SW TSE04B15 SLP155 OCNL LTGICCG OHD TS OHD MOV SE P0007 T02060194 $
KIND 110116Z 04003KT 9SM TSRA SCT050CB OVC110 21/19 A3001 RMK AO2 LTG DSNT NE-SE TSE04B15 OCNL LTGICCG OHD TS OHD MOV SE P0002 T02110194 $
KIND 110105Z 08004KT 10SM -RA SCT050 OVC110 21/19 A3001 RMK AO2 LTG DSNT ALQDS TSE04 FRQ LTGCGICCC DSNT E-SE CB DSNT E-SE MOV SE P0001 T02110194 $
KIND 110054Z 04007KT 10SM -TSRA BKN050CB OVC110 21/19 A3000 RMK AO2 LTG DSNT ALQDS SLP154 OCNL LTGCGICCC E-SE TS E-SE MOV SE P0030 T02110189 $
KIND 110004Z 35012G25KT 3SM TSRA BR BKN030CB OVC050 21/19 A3000 RMK AO2 LTG DSNT ALQDS FRQ LTGCGICCC OHD TS OHD MOV SE P0020 T02060194 $
KIND 102345Z 34019G44KT 1SM R05L/3000VP6000FT +TSRA BR OVC023CB 21/19 A3000 RMK AO2 PK WND 34045/2335 WSHFT 2330 LTG DSNT ALQDS RAB21 TSB09 CONS LTGCGICCC OHD TS OHD MOV SE P0003 T02110194 $
KIND 102331Z 28023G29KT 1SM R05L/4500VP6000FT +TSRA BKN030CB OVC050 27/23 A2992 RMK AO2 LTG DSNT ALQDS RAB21 TSB09 PRESRR OCNL LTGICCG SW-NW TS SW-NW MOV SE P0000 T02670228
KIND 102310Z 16007KT 10SM TS BKN030CB BKN050 OVC250 29/24 A2989 RMK AO2 LTG DSNT S-NW TSB09 OCNL LTGICCG SW-NW TS SW-NW MOV SE T02890239
KIND 102254Z 20007KT 10SM SCT030 BKN040 BKN250 29/24 A2991 RMK AO2 LTG DSNT SW-NW SLP121 CB DSNT SW-NW MOV SE T02890244
KIND 102154Z 21011KT 10SM SCT035 BKN070 BKN250 31/24 A2991 RMK AO2 SLP121 T03060239
KIND 102054Z 19011KT 10SM SCT030 SCT070 BKN250 30/24 A2993 RMK AO2 SLP128 T03000239 56021
KIND 101954Z 20010G16KT 10SM FEW030 SCT070 SCT250 30/23 A2994 RMK AO2 SLP132 T03000233
KIND 101854Z 19009G17KT 10SM FEW030 SCT250 29/23 A2996 RMK AO2 SLP139 T02940233